SAS556 ESSA-EHAM
Flight info
| Callsign | SAS556 |
|---|---|
| Flight time | N/A |
| Altitude | 34000 |
| Route | PETEV N872 ELPAX DCT KULUD Z703 EKDIV DCT AMRAK DCT WANZA N872 KUBAT T200 BLUFA |
| Aircraft | MD83/M-SDFGIRWY/S |
Departure
| Time | 2026-05-07 17:49 |
|---|---|
| Airport | Stockholm-Arlanda Airport (ESSA) |
Arrival
| Time | N/A |
|---|---|
| Airport | Amsterdam Airport Schiphol (EHAM) |
| Time | Latitude | Longitude | Altitude | Speed | Heading |
|---|---|---|---|---|---|
| 2026-05-07 17:06 | 59.64431 | 17.92674 | 113 ft | 0 kts | 51° |
| 2026-05-07 17:07 | 59.64468 | 17.92622 | 113 ft | 0 kts | 57° |
| 2026-05-07 17:34 | 59.64460 | 17.92599 | 112 ft | 4 kts | 57° |
| 2026-05-07 17:34 | 59.64446 | 17.92555 | 113 ft | 4 kts | 54° |
| 2026-05-07 17:34 | 59.64429 | 17.92525 | 111 ft | 4 kts | 15° |
| 2026-05-07 17:35 | 59.64401 | 17.92537 | 111 ft | 3 kts | 318° |
| 2026-05-07 17:35 | 59.64398 | 17.92544 | 113 ft | 0 kts | 315° |
| 2026-05-07 17:39 | 59.64403 | 17.92534 | 112 ft | 2 kts | 315° |
| 2026-05-07 17:40 | 59.64411 | 17.92507 | 111 ft | 2 kts | 287° |
| 2026-05-07 17:40 | 59.64407 | 17.92476 | 111 ft | 3 kts | 238° |
| 2026-05-07 17:40 | 59.64390 | 17.92447 | 111 ft | 4 kts | 219° |
| 2026-05-07 17:40 | 59.64365 | 17.92412 | 114 ft | 4 kts | 210° |
| 2026-05-07 17:41 | 59.64340 | 17.92388 | 113 ft | 3 kts | 207° |
| 2026-05-07 17:41 | 59.64331 | 17.92368 | 115 ft | 1 kts | 241° |
| 2026-05-07 17:41 | 59.64331 | 17.92365 | 115 ft | 0 kts | 245° |
| 2026-05-07 17:41 | 59.64328 | 17.92344 | 116 ft | 3 kts | 263° |
| 2026-05-07 17:42 | 59.64335 | 17.92306 | 116 ft | 3 kts | 301° |
| 2026-05-07 17:42 | 59.64350 | 17.92256 | 113 ft | 5 kts | 301° |
| 2026-05-07 17:42 | 59.64373 | 17.92180 | 114 ft | 8 kts | 301° |
| 2026-05-07 17:42 | 59.64416 | 17.92101 | 114 ft | 10 kts | 349° |
| 2026-05-07 17:43 | 59.64487 | 17.92129 | 114 ft | 12 kts | 14° |
| 2026-05-07 17:43 | 59.64573 | 17.92157 | 113 ft | 13 kts | 8° |
| 2026-05-07 17:43 | 59.64670 | 17.92190 | 112 ft | 15 kts | 13° |
| 2026-05-07 17:43 | 59.64774 | 17.92232 | 111 ft | 16 kts | 11° |
| 2026-05-07 17:44 | 59.64887 | 17.92272 | 112 ft | 17 kts | 9° |
| 2026-05-07 17:44 | 59.64985 | 17.92189 | 109 ft | 18 kts | 322° |
| 2026-05-07 17:44 | 59.65109 | 17.92183 | 107 ft | 19 kts | 11° |
| 2026-05-07 17:44 | 59.65241 | 17.92233 | 107 ft | 20 kts | 11° |
| 2026-05-07 17:45 | 59.65382 | 17.92283 | 104 ft | 22 kts | 10° |
| 2026-05-07 17:45 | 59.65532 | 17.92336 | 105 ft | 22 kts | 10° |
| 2026-05-07 17:45 | 59.65688 | 17.92393 | 105 ft | 25 kts | 10° |
| 2026-05-07 17:45 | 59.65870 | 17.92460 | 107 ft | 27 kts | 11° |
| 2026-05-07 17:46 | 59.66054 | 17.92526 | 111 ft | 26 kts | 11° |
| 2026-05-07 17:46 | 59.66228 | 17.92590 | 115 ft | 25 kts | 10° |
| 2026-05-07 17:46 | 59.66388 | 17.92647 | 119 ft | 22 kts | 10° |
| 2026-05-07 17:46 | 59.66517 | 17.92626 | 123 ft | 13 kts | 341° |
| 2026-05-07 17:47 | 59.66541 | 17.92609 | 125 ft | 0 kts | 339° |
| 2026-05-07 17:47 | 59.66568 | 17.92585 | 121 ft | 10 kts | 328° |
| 2026-05-07 17:47 | 59.66621 | 17.92426 | 123 ft | 20 kts | 274° |
| 2026-05-07 17:48 | 59.66565 | 17.92332 | 122 ft | 15 kts | 188° |
| 2026-05-07 17:48 | 59.66320 | 17.92258 | 118 ft | 68 kts | 190° |
| 2026-05-07 17:48 | 59.65519 | 17.91981 | 107 ft | 165 kts | 188° |
| 2026-05-07 17:48 | 59.64303 | 17.91584 | 468 ft | 216 kts | 190° |
| 2026-05-07 17:49 | 59.62721 | 17.90961 | 1428 ft | 243 kts | 189° |
| 2026-05-07 17:49 | 59.61339 | 17.90358 | 3317 ft | 196 kts | 194° |
| 2026-05-07 17:49 | 59.59981 | 17.88935 | 3160 ft | 252 kts | 221° |
| 2026-05-07 17:49 | 59.59089 | 17.85803 | 3601 ft | 260 kts | 252° |
| 2026-05-07 17:50 | 59.58666 | 17.82682 | 5135 ft | 227 kts | 253° |
| 2026-05-07 17:50 | 59.58083 | 17.79465 | 4850 ft | 271 kts | 245° |
| 2026-05-07 17:50 | 59.57320 | 17.76176 | 5284 ft | 261 kts | 244° |
| 2026-05-07 17:50 | 59.56414 | 17.72972 | 5883 ft | 265 kts | 231° |
| 2026-05-07 17:51 | 59.55228 | 17.70333 | 6997 ft | 260 kts | 226° |
| 2026-05-07 17:51 | 59.53908 | 17.67632 | 7322 ft | 277 kts | 226° |
| 2026-05-07 17:51 | 59.52564 | 17.64958 | 8230 ft | 273 kts | 226° |
| 2026-05-07 17:51 | 59.51237 | 17.62354 | 9001 ft | 274 kts | 226° |
| 2026-05-07 17:52 | 59.49884 | 17.59703 | 9716 ft | 275 kts | 226° |
| 2026-05-07 17:52 | 59.48504 | 17.56997 | 10309 ft | 282 kts | 227° |
| 2026-05-07 17:52 | 59.47103 | 17.54228 | 10669 ft | 295 kts | 228° |
| 2026-05-07 17:52 | 59.45643 | 17.51312 | 11077 ft | 306 kts | 228° |
| 2026-05-07 17:53 | 59.44136 | 17.48281 | 11616 ft | 310 kts | 229° |
| 2026-05-07 17:53 | 59.42631 | 17.45250 | 12240 ft | 310 kts | 229° |
| 2026-05-07 17:53 | 59.41131 | 17.42224 | 12854 ft | 310 kts | 230° |
| 2026-05-07 17:53 | 59.39630 | 17.39185 | 13397 ft | 312 kts | 230° |
| 2026-05-07 17:54 | 59.38094 | 17.36068 | 13913 ft | 314 kts | 230° |
| 2026-05-07 17:54 | 59.36594 | 17.33027 | 14425 ft | 315 kts | 230° |
| 2026-05-07 17:54 | 59.35066 | 17.29933 | 14917 ft | 317 kts | 230° |
| 2026-05-07 17:54 | 59.33524 | 17.26815 | 15391 ft | 319 kts | 230° |
| 2026-05-07 17:55 | 59.31977 | 17.23692 | 15897 ft | 320 kts | 230° |
| 2026-05-07 17:55 | 59.30421 | 17.20559 | 16387 ft | 322 kts | 230° |
| 2026-05-07 17:55 | 59.28858 | 17.17415 | 16854 ft | 323 kts | 230° |
| 2026-05-07 17:55 | 59.27287 | 17.14266 | 17333 ft | 324 kts | 230° |
| 2026-05-07 17:56 | 59.25706 | 17.11109 | 17746 ft | 327 kts | 230° |
| 2026-05-07 17:56 | 59.24093 | 17.07893 | 17942 ft | 334 kts | 230° |
| 2026-05-07 17:56 | 59.22442 | 17.04616 | 18032 ft | 347 kts | 227° |
| 2026-05-07 17:56 | 59.20392 | 17.01897 | 18090 ft | 367 kts | 207° |
| 2026-05-07 17:57 | 59.17909 | 17.00548 | 18107 ft | 371 kts | 198° |
| 2026-05-07 17:57 | 59.16236 | 16.99645 | 18107 ft | 367 kts | 204° |
| 2026-05-07 17:57 | 59.13240 | 16.96823 | 18112 ft | 360 kts | 216° |
| 2026-05-07 17:57 | 59.11167 | 16.94088 | 18182 ft | 362 kts | 220° |
| 2026-05-07 17:58 | 59.09162 | 16.91067 | 18731 ft | 364 kts | 223° |
| 2026-05-07 17:58 | 59.07228 | 16.87931 | 19517 ft | 361 kts | 225° |
| 2026-05-07 17:58 | 59.05334 | 16.84729 | 20135 ft | 362 kts | 225° |
| 2026-05-07 17:58 | 59.03451 | 16.81467 | 20666 ft | 366 kts | 226° |
| 2026-05-07 17:59 | 59.01539 | 16.78142 | 21220 ft | 368 kts | 226° |
| 2026-05-07 17:59 | 58.99629 | 16.74830 | 21773 ft | 371 kts | 226° |
| 2026-05-07 17:59 | 58.97694 | 16.71494 | 22331 ft | 373 kts | 226° |
| 2026-05-07 17:59 | 58.95739 | 16.68146 | 22842 ft | 376 kts | 225° |
| 2026-05-07 18:00 | 58.93766 | 16.64789 | 23317 ft | 380 kts | 225° |
| 2026-05-07 18:00 | 58.91759 | 16.61417 | 23794 ft | 383 kts | 225° |
| 2026-05-07 18:00 | 58.89739 | 16.58051 | 24301 ft | 385 kts | 225° |
| 2026-05-07 18:00 | 58.87696 | 16.54652 | 24791 ft | 388 kts | 225° |
| 2026-05-07 18:01 | 58.85648 | 16.51238 | 25195 ft | 392 kts | 225° |
| 2026-05-07 18:01 | 58.83563 | 16.47756 | 25512 ft | 398 kts | 225° |
| 2026-05-07 18:01 | 58.81447 | 16.44214 | 25742 ft | 407 kts | 225° |
| 2026-05-07 18:01 | 58.79306 | 16.40631 | 26183 ft | 409 kts | 225° |
| 2026-05-07 18:02 | 58.74994 | 16.33437 | 27075 ft | 412 kts | 225° |
| 2026-05-07 18:02 | 58.72817 | 16.29807 | 27449 ft | 416 kts | 225° |
| 2026-05-07 18:02 | 58.70623 | 16.26155 | 27864 ft | 418 kts | 225° |
| 2026-05-07 18:03 | 58.68417 | 16.22492 | 28253 ft | 421 kts | 225° |
| 2026-05-07 18:03 | 58.66189 | 16.18799 | 28655 ft | 423 kts | 225° |
| 2026-05-07 18:03 | 58.63954 | 16.15096 | 29027 ft | 426 kts | 224° |
| 2026-05-07 18:03 | 58.61703 | 16.11380 | 29451 ft | 427 kts | 224° |
| 2026-05-07 18:04 | 58.59447 | 16.07698 | 29987 ft | 424 kts | 224° |
| 2026-05-07 18:04 | 58.57203 | 16.04053 | 30497 ft | 422 kts | 224° |
| 2026-05-07 18:04 | 58.54962 | 16.00412 | 30931 ft | 422 kts | 224° |
| 2026-05-07 18:04 | 58.52724 | 15.96768 | 31302 ft | 423 kts | 224° |
| 2026-05-07 18:05 | 58.50486 | 15.93121 | 31695 ft | 423 kts | 224° |
| 2026-05-07 18:05 | 58.48253 | 15.89474 | 32080 ft | 422 kts | 224° |
| 2026-05-07 18:05 | 58.46049 | 15.85882 | 32445 ft | 422 kts | 224° |
| 2026-05-07 18:05 | 58.43815 | 15.82251 | 32805 ft | 422 kts | 225° |
| 2026-05-07 18:06 | 58.41583 | 15.78621 | 33173 ft | 421 kts | 225° |
| 2026-05-07 18:06 | 58.39327 | 15.74955 | 33506 ft | 421 kts | 225° |
| 2026-05-07 18:06 | 58.37096 | 15.71335 | 33809 ft | 422 kts | 225° |
| 2026-05-07 18:06 | 58.34856 | 15.67707 | 33971 ft | 425 kts | 225° |
| 2026-05-07 18:07 | 58.32606 | 15.64068 | 34028 ft | 424 kts | 225° |
| 2026-05-07 18:07 | 58.28108 | 15.56863 | 34080 ft | 420 kts | 224° |
| 2026-05-07 18:08 | 58.23667 | 15.49824 | 34098 ft | 417 kts | 224° |
| 2026-05-07 18:08 | 58.19238 | 15.42736 | 34101 ft | 417 kts | 225° |
| 2026-05-07 18:09 | 58.14811 | 15.35614 | 34100 ft | 418 kts | 225° |
| 2026-05-07 18:09 | 58.10371 | 15.28478 | 34100 ft | 419 kts | 225° |
| 2026-05-07 18:10 | 58.05946 | 15.21296 | 34101 ft | 419 kts | 225° |
| 2026-05-07 18:10 | 58.01593 | 15.13997 | 34100 ft | 418 kts | 226° |